sensor_id;sensor_type;location;lat;lon;timestamp;P1;durP1;ratioP1;P2;durP2;ratioP2
41233;SDS011;26968;42.686;23.352;2023-07-13T00:01:11;10.80;;;4.80;;
41233;SDS011;26968;42.686;23.352;2023-07-13T00:03:38;11.95;;;4.68;;
41233;SDS011;26968;42.686;23.352;2023-07-13T00:06:06;9.90;;;4.65;;
41233;SDS011;26968;42.686;23.352;2023-07-13T00:08:32;8.98;;;4.60;;
41233;SDS011;26968;42.686;23.352;2023-07-13T00:10:58;13.00;;;5.25;;
41233;SDS011;26968;42.686;23.352;2023-07-13T00:13:24;10.70;;;4.88;;
41233;SDS011;26968;42.686;23.352;2023-07-13T00:15:50;10.23;;;4.85;;
41233;SDS011;26968;42.686;23.352;2023-07-13T00:18:15;10.05;;;4.82;;
41233;SDS011;26968;42.686;23.352;2023-07-13T00:20:41;9.90;;;4.90;;
41233;SDS011;26968;42.686;23.352;2023-07-13T00:23:07;9.10;;;4.57;;
41233;SDS011;26968;42.686;23.352;2023-07-13T00:25:32;10.43;;;4.95;;
41233;SDS011;26968;42.686;23.352;2023-07-13T00:27:58;9.52;;;4.95;;
41233;SDS011;26968;42.686;23.352;2023-07-13T00:30:23;9.35;;;4.80;;
41233;SDS011;26968;42.686;23.352;2023-07-13T00:32:49;8.20;;;4.90;;
41233;SDS011;26968;42.686;23.352;2023-07-13T00:35:14;9.77;;;5.10;;
41233;SDS011;26968;42.686;23.352;2023-07-13T00:37:40;9.30;;;5.20;;
41233;SDS011;26968;42.686;23.352;2023-07-13T00:40:07;16.20;;;5.15;;
41233;SDS011;26968;42.686;23.352;2023-07-13T00:42:33;10.65;;;4.93;;
41233;SDS011;26968;42.686;23.352;2023-07-13T00:45:06;10.80;;;5.18;;
41233;SDS011;26968;42.686;23.352;2023-07-13T00:47:32;10.35;;;5.00;;
41233;SDS011;26968;42.686;23.352;2023-07-13T00:49:58;11.15;;;5.00;;
41233;SDS011;26968;42.686;23.352;2023-07-13T00:52:24;11.52;;;5.55;;
41233;SDS011;26968;42.686;23.352;2023-07-13T00:54:49;12.13;;;5.30;;
41233;SDS011;26968;42.686;23.352;2023-07-13T00:57:16;9.60;;;4.63;;
41233;SDS011;26968;42.686;23.352;2023-07-13T00:59:48;14.00;;;5.20;;
41233;SDS011;26968;42.686;23.352;2023-07-13T01:02:16;13.20;;;5.55;;
41233;SDS011;26968;42.686;23.352;2023-07-13T01:04:43;12.85;;;5.18;;
41233;SDS011;26968;42.686;23.352;2023-07-13T01:07:09;13.15;;;5.65;;
41233;SDS011;26968;42.686;23.352;2023-07-13T01:09:35;14.70;;;6.53;;
41233;SDS011;26968;42.686;23.352;2023-07-13T01:12:01;9.40;;;5.15;;
41233;SDS011;26968;42.686;23.352;2023-07-13T01:14:27;10.98;;;5.93;;
41233;SDS011;26968;42.686;23.352;2023-07-13T01:16:52;10.60;;;5.20;;
41233;SDS011;26968;42.686;23.352;2023-07-13T01:21:44;10.27;;;6.18;;
41233;SDS011;26968;42.686;23.352;2023-07-13T01:24:15;17.63;;;6.55;;
41233;SDS011;26968;42.686;23.352;2023-07-13T01:26:41;11.35;;;5.95;;
41233;SDS011;26968;42.686;23.352;2023-07-13T01:29:06;14.82;;;5.95;;
41233;SDS011;26968;42.686;23.352;2023-07-13T01:31:32;17.20;;;6.70;;
41233;SDS011;26968;42.686;23.352;2023-07-13T01:33:58;13.95;;;6.90;;
41233;SDS011;26968;42.686;23.352;2023-07-13T01:36:23;11.57;;;5.90;;
41233;SDS011;26968;42.686;23.352;2023-07-13T01:38:49;17.77;;;6.53;;
41233;SDS011;26968;42.686;23.352;2023-07-13T01:41:14;14.10;;;6.38;;
41233;SDS011;26968;42.686;23.352;2023-07-13T01:43:40;14.85;;;6.57;;
41233;SDS011;26968;42.686;23.352;2023-07-13T01:46:05;12.52;;;6.20;;
41233;SDS011;26968;42.686;23.352;2023-07-13T01:48:31;14.30;;;6.25;;
41233;SDS011;26968;42.686;23.352;2023-07-13T01:50:56;13.85;;;6.97;;
41233;SDS011;26968;42.686;23.352;2023-07-13T01:53:22;9.98;;;5.63;;
41233;SDS011;26968;42.686;23.352;2023-07-13T01:55:47;13.40;;;6.15;;
41233;SDS011;26968;42.686;23.352;2023-07-13T01:58:13;9.05;;;6.45;;
41233;SDS011;26968;42.686;23.352;2023-07-13T02:00:38;9.77;;;6.70;;
41233;SDS011;26968;42.686;23.352;2023-07-13T02:03:03;13.57;;;6.43;;
41233;SDS011;26968;42.686;23.352;2023-07-13T02:05:29;15.75;;;6.80;;
41233;SDS011;26968;42.686;23.352;2023-07-13T02:07:54;14.65;;;6.45;;
41233;SDS011;26968;42.686;23.352;2023-07-13T02:10:20;14.18;;;6.40;;
41233;SDS011;26968;42.686;23.352;2023-07-13T02:12:45;11.02;;;5.88;;
41233;SDS011;26968;42.686;23.352;2023-07-13T02:15:11;14.82;;;6.43;;
41233;SDS011;26968;42.686;23.352;2023-07-13T02:17:36;14.85;;;6.07;;
41233;SDS011;26968;42.686;23.352;2023-07-13T02:20:02;12.15;;;6.25;;
41233;SDS011;26968;42.686;23.352;2023-07-13T02:22:29;11.43;;;5.88;;
41233;SDS011;26968;42.686;23.352;2023-07-13T02:24:55;20.70;;;6.47;;
41233;SDS011;26968;42.686;23.352;2023-07-13T02:27:20;19.08;;;7.43;;
41233;SDS011;26968;42.686;23.352;2023-07-13T02:29:46;12.32;;;6.35;;
41233;SDS011;26968;42.686;23.352;2023-07-13T02:32:11;10.82;;;6.05;;
41233;SDS011;26968;42.686;23.352;2023-07-13T02:34:37;12.25;;;6.75;;
41233;SDS011;26968;42.686;23.352;2023-07-13T02:37:02;9.93;;;6.82;;
41233;SDS011;26968;42.686;23.352;2023-07-13T02:39:28;16.50;;;7.72;;
41233;SDS011;26968;42.686;23.352;2023-07-13T02:41:53;12.20;;;6.50;;
41233;SDS011;26968;42.686;23.352;2023-07-13T02:44:19;12.18;;;6.70;;
41233;SDS011;26968;42.686;23.352;2023-07-13T02:46:44;14.50;;;6.85;;
41233;SDS011;26968;42.686;23.352;2023-07-13T02:49:10;11.35;;;6.85;;
41233;SDS011;26968;42.686;23.352;2023-07-13T02:51:35;17.08;;;6.60;;
41233;SDS011;26968;42.686;23.352;2023-07-13T02:54:01;16.55;;;6.85;;
41233;SDS011;26968;42.686;23.352;2023-07-13T02:56:28;12.00;;;6.75;;
41233;SDS011;26968;42.686;23.352;2023-07-13T02:58:54;15.63;;;6.70;;
41233;SDS011;26968;42.686;23.352;2023-07-13T03:01:20;13.10;;;6.35;;
41233;SDS011;26968;42.686;23.352;2023-07-13T03:03:46;13.02;;;6.13;;
41233;SDS011;26968;42.686;23.352;2023-07-13T03:06:13;26.27;;;7.38;;
41233;SDS011;26968;42.686;23.352;2023-07-13T03:08:39;12.93;;;7.03;;
41233;SDS011;26968;42.686;23.352;2023-07-13T03:11:09;16.80;;;8.05;;
41233;SDS011;26968;42.686;23.352;2023-07-13T03:13:37;18.48;;;7.43;;
41233;SDS011;26968;42.686;23.352;2023-07-13T03:16:04;18.42;;;7.43;;
41233;SDS011;26968;42.686;23.352;2023-07-13T03:18:30;24.05;;;7.97;;
41233;SDS011;26968;42.686;23.352;2023-07-13T03:20:56;21.08;;;7.15;;
41233;SDS011;26968;42.686;23.352;2023-07-13T03:23:21;17.50;;;7.30;;
41233;SDS011;26968;42.686;23.352;2023-07-13T03:25:48;16.02;;;7.30;;
41233;SDS011;26968;42.686;23.352;2023-07-13T03:28:14;17.35;;;7.90;;
41233;SDS011;26968;42.686;23.352;2023-07-13T03:30:40;16.58;;;7.43;;
41233;SDS011;26968;42.686;23.352;2023-07-13T03:33:06;22.73;;;9.05;;
41233;SDS011;26968;42.686;23.352;2023-07-13T03:35:32;19.77;;;8.32;;
41233;SDS011;26968;42.686;23.352;2023-07-13T03:37:58;20.02;;;8.52;;
41233;SDS011;26968;42.686;23.352;2023-07-13T03:40:24;14.85;;;7.80;;
41233;SDS011;26968;42.686;23.352;2023-07-13T03:42:51;19.63;;;8.25;;
41233;SDS011;26968;42.686;23.352;2023-07-13T03:45:17;18.77;;;8.23;;
41233;SDS011;26968;42.686;23.352;2023-07-13T03:47:43;17.98;;;8.13;;
41233;SDS011;26968;42.686;23.352;2023-07-13T03:50:08;24.17;;;9.23;;
41233;SDS011;26968;42.686;23.352;2023-07-13T03:52:34;17.67;;;7.82;;
41233;SDS011;26968;42.686;23.352;2023-07-13T03:54:59;14.85;;;8.85;;
41233;SDS011;26968;42.686;23.352;2023-07-13T03:57:25;16.08;;;9.30;;
41233;SDS011;26968;42.686;23.352;2023-07-13T03:59:50;18.20;;;9.45;;
41233;SDS011;26968;42.686;23.352;2023-07-13T04:02:16;17.77;;;9.15;;
41233;SDS011;26968;42.686;23.352;2023-07-13T04:04:42;15.60;;;9.38;;
41233;SDS011;26968;42.686;23.352;2023-07-13T04:07:08;13.40;;;9.23;;
41233;SDS011;26968;42.686;23.352;2023-07-13T04:09:34;18.05;;;8.77;;
41233;SDS011;26968;42.686;23.352;2023-07-13T04:12:00;13.43;;;8.70;;
41233;SDS011;26968;42.686;23.352;2023-07-13T04:14:25;20.13;;;8.77;;
41233;SDS011;26968;42.686;23.352;2023-07-13T04:16:51;19.15;;;8.50;;
41233;SDS011;26968;42.686;23.352;2023-07-13T04:19:16;16.15;;;9.80;;
41233;SDS011;26968;42.686;23.352;2023-07-13T04:21:42;13.15;;;8.27;;
41233;SDS011;26968;42.686;23.352;2023-07-13T04:24:08;19.60;;;8.98;;
41233;SDS011;26968;42.686;23.352;2023-07-13T04:26:33;17.73;;;9.18;;
41233;SDS011;26968;42.686;23.352;2023-07-13T04:29:00;15.10;;;8.32;;
41233;SDS011;26968;42.686;23.352;2023-07-13T04:31:28;17.88;;;8.38;;
41233;SDS011;26968;42.686;23.352;2023-07-13T04:33:54;14.60;;;8.93;;
41233;SDS011;26968;42.686;23.352;2023-07-13T04:36:20;17.88;;;9.13;;
41233;SDS011;26968;42.686;23.352;2023-07-13T04:38:45;17.77;;;8.32;;
41233;SDS011;26968;42.686;23.352;2023-07-13T04:41:11;14.50;;;7.47;;
41233;SDS011;26968;42.686;23.352;2023-07-13T04:43:38;15.35;;;8.82;;
41233;SDS011;26968;42.686;23.352;2023-07-13T04:46:08;15.25;;;8.23;;
41233;SDS011;26968;42.686;23.352;2023-07-13T04:48:36;12.52;;;7.90;;
41233;SDS011;26968;42.686;23.352;2023-07-13T04:51:02;14.90;;;8.60;;
41233;SDS011;26968;42.686;23.352;2023-07-13T04:53:28;17.73;;;8.57;;
41233;SDS011;26968;42.686;23.352;2023-07-13T04:55:53;14.18;;;8.52;;
41233;SDS011;26968;42.686;23.352;2023-07-13T04:58:20;17.45;;;8.98;;
41233;SDS011;26968;42.686;23.352;2023-07-13T05:00:46;18.33;;;8.45;;
41233;SDS011;26968;42.686;23.352;2023-07-13T05:03:12;14.10;;;10.98;;
41233;SDS011;26968;42.686;23.352;2023-07-13T05:05:38;24.98;;;11.18;;
41233;SDS011;26968;42.686;23.352;2023-07-13T05:08:03;22.83;;;11.48;;
41233;SDS011;26968;42.686;23.352;2023-07-13T05:10:29;23.38;;;11.15;;
41233;SDS011;26968;42.686;23.352;2023-07-13T05:12:54;19.25;;;10.73;;
41233;SDS011;26968;42.686;23.352;2023-07-13T05:15:21;20.02;;;11.18;;
41233;SDS011;26968;42.686;23.352;2023-07-13T05:17:47;24.55;;;11.43;;
41233;SDS011;26968;42.686;23.352;2023-07-13T05:20:14;20.58;;;10.60;;
41233;SDS011;26968;42.686;23.352;2023-07-13T05:22:41;20.60;;;9.93;;
41233;SDS011;26968;42.686;23.352;2023-07-13T05:25:07;21.27;;;10.38;;
41233;SDS011;26968;42.686;23.352;2023-07-13T05:27:33;21.27;;;10.50;;
41233;SDS011;26968;42.686;23.352;2023-07-13T05:30:00;18.67;;;10.15;;
41233;SDS011;26968;42.686;23.352;2023-07-13T05:32:26;22.75;;;10.50;;
41233;SDS011;26968;42.686;23.352;2023-07-13T05:34:52;18.65;;;11.55;;
41233;SDS011;26968;42.686;23.352;2023-07-13T05:37:17;21.02;;;10.80;;
41233;SDS011;26968;42.686;23.352;2023-07-13T05:39:43;22.23;;;10.98;;
41233;SDS011;26968;42.686;23.352;2023-07-13T05:42:09;21.75;;;11.68;;
41233;SDS011;26968;42.686;23.352;2023-07-13T05:44:34;21.98;;;11.15;;
41233;SDS011;26968;42.686;23.352;2023-07-13T05:47:00;22.88;;;11.50;;
41233;SDS011;26968;42.686;23.352;2023-07-13T05:49:26;21.67;;;10.57;;
41233;SDS011;26968;42.686;23.352;2023-07-13T05:51:51;25.75;;;11.07;;
41233;SDS011;26968;42.686;23.352;2023-07-13T05:54:17;18.10;;;10.05;;
41233;SDS011;26968;42.686;23.352;2023-07-13T05:56:42;25.00;;;10.65;;
41233;SDS011;26968;42.686;23.352;2023-07-13T05:59:08;15.40;;;10.07;;
41233;SDS011;26968;42.686;23.352;2023-07-13T06:01:33;18.63;;;10.80;;
41233;SDS011;26968;42.686;23.352;2023-07-13T06:03:59;19.90;;;10.15;;
41233;SDS011;26968;42.686;23.352;2023-07-13T06:06:24;17.05;;;10.15;;
41233;SDS011;26968;42.686;23.352;2023-07-13T06:08:50;22.33;;;9.93;;
41233;SDS011;26968;42.686;23.352;2023-07-13T06:11:25;19.02;;;9.70;;
41233;SDS011;26968;42.686;23.352;2023-07-13T06:13:52;13.63;;;9.30;;
41233;SDS011;26968;42.686;23.352;2023-07-13T06:16:19;23.33;;;10.20;;
41233;SDS011;26968;42.686;23.352;2023-07-13T06:18:45;18.80;;;8.98;;
41233;SDS011;26968;42.686;23.352;2023-07-13T06:21:21;21.48;;;10.40;;
41233;SDS011;26968;42.686;23.352;2023-07-13T06:23:48;17.83;;;9.48;;
41233;SDS011;26968;42.686;23.352;2023-07-13T06:26:15;14.43;;;8.68;;
41233;SDS011;26968;42.686;23.352;2023-07-13T06:28:42;16.42;;;9.65;;
41233;SDS011;26968;42.686;23.352;2023-07-13T06:31:08;17.95;;;9.52;;
41233;SDS011;26968;42.686;23.352;2023-07-13T06:33:35;16.77;;;9.30;;
41233;SDS011;26968;42.686;23.352;2023-07-13T06:36:02;22.88;;;11.75;;
41233;SDS011;26968;42.686;23.352;2023-07-13T06:38:29;20.98;;;9.35;;
41233;SDS011;26968;42.686;23.352;2023-07-13T06:40:54;18.08;;;10.32;;
41233;SDS011;26968;42.686;23.352;2023-07-13T06:43:19;22.50;;;9.70;;
41233;SDS011;26968;42.686;23.352;2023-07-13T06:45:46;20.35;;;9.90;;
41233;SDS011;26968;42.686;23.352;2023-07-13T06:48:14;22.52;;;9.57;;
41233;SDS011;26968;42.686;23.352;2023-07-13T06:50:40;21.58;;;9.77;;
41233;SDS011;26968;42.686;23.352;2023-07-13T06:53:08;22.92;;;9.10;;
41233;SDS011;26968;42.686;23.352;2023-07-13T06:55:34;22.38;;;9.60;;
41233;SDS011;26968;42.686;23.352;2023-07-13T06:58:00;22.80;;;9.50;;
41233;SDS011;26968;42.686;23.352;2023-07-13T07:00:25;24.70;;;9.45;;
41233;SDS011;26968;42.686;23.352;2023-07-13T07:02:51;24.00;;;9.25;;
41233;SDS011;26968;42.686;23.352;2023-07-13T07:05:16;22.75;;;9.95;;
41233;SDS011;26968;42.686;23.352;2023-07-13T07:07:42;32.05;;;10.48;;
41233;SDS011;26968;42.686;23.352;2023-07-13T07:10:07;17.55;;;8.80;;
41233;SDS011;26968;42.686;23.352;2023-07-13T07:12:33;20.55;;;10.30;;
41233;SDS011;26968;42.686;23.352;2023-07-13T07:14:58;18.88;;;10.48;;
41233;SDS011;26968;42.686;23.352;2023-07-13T07:17:24;22.52;;;9.65;;
41233;SDS011;26968;42.686;23.352;2023-07-13T07:19:51;18.75;;;9.27;;
41233;SDS011;26968;42.686;23.352;2023-07-13T07:22:16;13.60;;;8.98;;
41233;SDS011;26968;42.686;23.352;2023-07-13T07:24:41;19.90;;;8.27;;
41233;SDS011;26968;42.686;23.352;2023-07-13T07:27:07;21.35;;;8.27;;
41233;SDS011;26968;42.686;23.352;2023-07-13T07:29:32;17.83;;;9.02;;
41233;SDS011;26968;42.686;23.352;2023-07-13T07:31:58;15.23;;;9.00;;
41233;SDS011;26968;42.686;23.352;2023-07-13T07:34:24;21.88;;;9.52;;
41233;SDS011;26968;42.686;23.352;2023-07-13T07:36:50;14.73;;;9.30;;
41233;SDS011;26968;42.686;23.352;2023-07-13T07:39:15;22.35;;;9.02;;
41233;SDS011;26968;42.686;23.352;2023-07-13T07:41:41;13.70;;;8.60;;
41233;SDS011;26968;42.686;23.352;2023-07-13T07:44:07;17.63;;;8.98;;
41233;SDS011;26968;42.686;23.352;2023-07-13T07:46:34;19.95;;;9.32;;
41233;SDS011;26968;42.686;23.352;2023-07-13T07:49:00;14.90;;;8.95;;
41233;SDS011;26968;42.686;23.352;2023-07-13T07:51:25;22.65;;;9.18;;
41233;SDS011;26968;42.686;23.352;2023-07-13T07:53:51;13.60;;;8.35;;
41233;SDS011;26968;42.686;23.352;2023-07-13T07:56:16;19.45;;;8.88;;
41233;SDS011;26968;42.686;23.352;2023-07-13T07:58:42;19.83;;;9.27;;
41233;SDS011;26968;42.686;23.352;2023-07-13T08:01:08;14.98;;;7.95;;
41233;SDS011;26968;42.686;23.352;2023-07-13T08:03:33;18.17;;;8.52;;
41233;SDS011;26968;42.686;23.352;2023-07-13T08:05:59;18.33;;;8.85;;
41233;SDS011;26968;42.686;23.352;2023-07-13T08:08:25;21.55;;;8.15;;
41233;SDS011;26968;42.686;23.352;2023-07-13T08:10:51;17.88;;;8.85;;
41233;SDS011;26968;42.686;23.352;2023-07-13T08:13:16;20.60;;;9.20;;
41233;SDS011;26968;42.686;23.352;2023-07-13T08:15:42;19.02;;;9.07;;
41233;SDS011;26968;42.686;23.352;2023-07-13T08:18:08;21.10;;;8.93;;
41233;SDS011;26968;42.686;23.352;2023-07-13T08:20:36;25.88;;;8.75;;
41233;SDS011;26968;42.686;23.352;2023-07-13T08:23:03;15.50;;;8.48;;
41233;SDS011;26968;42.686;23.352;2023-07-13T08:25:29;22.77;;;8.98;;
41233;SDS011;26968;42.686;23.352;2023-07-13T08:27:54;22.88;;;9.70;;
41233;SDS011;26968;42.686;23.352;2023-07-13T08:30:19;19.23;;;8.80;;
41233;SDS011;26968;42.686;23.352;2023-07-13T08:32:45;19.33;;;9.25;;
41233;SDS011;26968;42.686;23.352;2023-07-13T08:35:10;19.38;;;8.45;;
41233;SDS011;26968;42.686;23.352;2023-07-13T08:37:36;22.15;;;9.30;;
41233;SDS011;26968;42.686;23.352;2023-07-13T08:40:01;22.63;;;8.65;;
41233;SDS011;26968;42.686;23.352;2023-07-13T08:47:44;20.30;;;9.50;;
41233;SDS011;26968;42.686;23.352;2023-07-13T08:50:16;25.40;;;9.25;;
41233;SDS011;26968;42.686;23.352;2023-07-13T08:52:44;22.40;;;8.98;;
41233;SDS011;26968;42.686;23.352;2023-07-13T08:55:21;19.85;;;8.27;;
41233;SDS011;26968;42.686;23.352;2023-07-13T08:58:02;17.55;;;8.75;;
41233;SDS011;26968;42.686;23.352;2023-07-13T09:00:55;22.35;;;9.07;;
41233;SDS011;26968;42.686;23.352;2023-07-13T09:03:29;26.08;;;9.02;;
41233;SDS011;26968;42.686;23.352;2023-07-13T09:06:00;15.07;;;8.50;;
41233;SDS011;26968;42.686;23.352;2023-07-13T09:08:57;20.17;;;8.90;;
41233;SDS011;26968;42.686;23.352;2023-07-13T09:17:22;24.80;;;9.93;;
41233;SDS011;26968;42.686;23.352;2023-07-13T09:19:59;18.92;;;8.43;;
41233;SDS011;26968;42.686;23.352;2023-07-13T09:22:29;14.73;;;7.93;;
41233;SDS011;26968;42.686;23.352;2023-07-13T09:25:05;19.55;;;9.45;;
41233;SDS011;26968;42.686;23.352;2023-07-13T09:27:41;18.83;;;8.85;;
41233;SDS011;26968;42.686;23.352;2023-07-13T09:32:39;16.83;;;8.57;;
41233;SDS011;26968;42.686;23.352;2023-07-13T09:35:12;20.05;;;9.02;;
41233;SDS011;26968;42.686;23.352;2023-07-13T09:37:40;25.25;;;9.88;;
41233;SDS011;26968;42.686;23.352;2023-07-13T09:40:11;21.95;;;8.98;;
41233;SDS011;26968;42.686;23.352;2023-07-13T09:42:51;20.25;;;9.20;;
41233;SDS011;26968;42.686;23.352;2023-07-13T09:45:26;17.15;;;9.32;;
41233;SDS011;26968;42.686;23.352;2023-07-13T09:47:58;22.63;;;9.20;;
41233;SDS011;26968;42.686;23.352;2023-07-13T09:50:45;28.05;;;10.07;;
41233;SDS011;26968;42.686;23.352;2023-07-13T09:53:14;21.58;;;9.77;;
41233;SDS011;26968;42.686;23.352;2023-07-13T09:55:42;19.35;;;8.45;;
41233;SDS011;26968;42.686;23.352;2023-07-13T09:58:11;14.25;;;8.25;;
41233;SDS011;26968;42.686;23.352;2023-07-13T10:03:28;14.40;;;7.72;;
41233;SDS011;26968;42.686;23.352;2023-07-13T10:06:00;17.05;;;8.52;;
41233;SDS011;26968;42.686;23.352;2023-07-13T10:08:35;20.95;;;8.48;;
41233;SDS011;26968;42.686;23.352;2023-07-13T10:11:08;23.08;;;7.95;;
41233;SDS011;26968;42.686;23.352;2023-07-13T10:13:37;18.70;;;7.75;;
41233;SDS011;26968;42.686;23.352;2023-07-13T10:16:07;19.17;;;7.72;;
41233;SDS011;26968;42.686;23.352;2023-07-13T10:18:38;16.27;;;7.70;;
41233;SDS011;26968;42.686;23.352;2023-07-13T10:21:18;15.13;;;7.28;;
41233;SDS011;26968;42.686;23.352;2023-07-13T10:23:48;16.52;;;7.15;;
41233;SDS011;26968;42.686;23.352;2023-07-13T10:26:18;17.88;;;7.10;;
41233;SDS011;26968;42.686;23.352;2023-07-13T10:28:49;12.90;;;6.63;;
41233;SDS011;26968;42.686;23.352;2023-07-13T10:31:18;21.35;;;6.18;;
41233;SDS011;26968;42.686;23.352;2023-07-13T10:33:44;18.83;;;5.65;;
41233;SDS011;26968;42.686;23.352;2023-07-13T10:36:14;11.20;;;5.95;;
41233;SDS011;26968;42.686;23.352;2023-07-13T10:38:40;17.75;;;6.05;;
41233;SDS011;26968;42.686;23.352;2023-07-13T10:41:08;11.77;;;5.35;;
41233;SDS011;26968;42.686;23.352;2023-07-13T10:43:45;17.27;;;5.22;;
41233;SDS011;26968;42.686;23.352;2023-07-13T10:46:16;14.35;;;5.90;;
41233;SDS011;26968;42.686;23.352;2023-07-13T10:48:44;10.90;;;4.85;;
41233;SDS011;26968;42.686;23.352;2023-07-13T10:53:40;12.98;;;5.13;;
41233;SDS011;26968;42.686;23.352;2023-07-13T10:58:46;17.98;;;5.72;;
41233;SDS011;26968;42.686;23.352;2023-07-13T11:01:14;13.95;;;5.10;;
41233;SDS011;26968;42.686;23.352;2023-07-13T11:09:31;14.80;;;5.80;;
41233;SDS011;26968;42.686;23.352;2023-07-13T11:11:59;9.48;;;4.82;;
41233;SDS011;26968;42.686;23.352;2023-07-13T11:14:36;13.23;;;4.82;;
41233;SDS011;26968;42.686;23.352;2023-07-13T11:17:50;10.68;;;4.72;;
41233;SDS011;26968;42.686;23.352;2023-07-13T11:20:20;15.02;;;4.50;;
41233;SDS011;26968;42.686;23.352;2023-07-13T11:22:52;11.35;;;4.60;;
41233;SDS011;26968;42.686;23.352;2023-07-13T11:25:33;16.85;;;5.72;;
41233;SDS011;26968;42.686;23.352;2023-07-13T11:30:38;10.30;;;5.47;;
41233;SDS011;26968;42.686;23.352;2023-07-13T11:36:43;17.30;;;5.53;;
41233;SDS011;26968;42.686;23.352;2023-07-13T11:41:28;11.35;;;5.20;;
41233;SDS011;26968;42.686;23.352;2023-07-13T11:44:10;13.45;;;4.72;;
41233;SDS011;26968;42.686;23.352;2023-07-13T11:46:36;13.52;;;5.13;;
41233;SDS011;26968;42.686;23.352;2023-07-13T11:49:01;16.98;;;5.20;;
41233;SDS011;26968;42.686;23.352;2023-07-13T11:51:31;11.57;;;5.70;;
41233;SDS011;26968;42.686;23.352;2023-07-13T11:54:06;12.43;;;5.13;;
41233;SDS011;26968;42.686;23.352;2023-07-13T11:56:55;11.68;;;5.60;;
41233;SDS011;26968;42.686;23.352;2023-07-13T11:59:23;12.75;;;5.18;;
41233;SDS011;26968;42.686;23.352;2023-07-13T12:01:50;12.95;;;5.30;;
41233;SDS011;26968;42.686;23.352;2023-07-13T12:04:23;13.10;;;5.53;;
41233;SDS011;26968;42.686;23.352;2023-07-13T12:07:07;18.90;;;5.07;;
41233;SDS011;26968;42.686;23.352;2023-07-13T12:09:40;12.68;;;5.47;;
41233;SDS011;26968;42.686;23.352;2023-07-13T12:12:28;11.25;;;5.30;;
41233;SDS011;26968;42.686;23.352;2023-07-13T12:14:55;13.25;;;4.97;;
41233;SDS011;26968;42.686;23.352;2023-07-13T12:17:22;13.23;;;5.45;;
41233;SDS011;26968;42.686;23.352;2023-07-13T12:19:52;10.88;;;5.38;;
41233;SDS011;26968;42.686;23.352;2023-07-13T12:22:19;13.40;;;5.13;;
41233;SDS011;26968;42.686;23.352;2023-07-13T12:24:45;13.55;;;4.95;;
41233;SDS011;26968;42.686;23.352;2023-07-13T12:27:22;10.55;;;4.85;;
41233;SDS011;26968;42.686;23.352;2023-07-13T12:29:56;9.65;;;5.15;;
41233;SDS011;26968;42.686;23.352;2023-07-13T12:32:24;14.32;;;5.45;;
41233;SDS011;26968;42.686;23.352;2023-07-13T12:34:52;16.70;;;5.40;;
41233;SDS011;26968;42.686;23.352;2023-07-13T12:37:19;17.48;;;4.97;;
41233;SDS011;26968;42.686;23.352;2023-07-13T12:39:46;9.68;;;4.15;;
41233;SDS011;26968;42.686;23.352;2023-07-13T12:42:17;12.05;;;4.43;;
41233;SDS011;26968;42.686;23.352;2023-07-13T12:45:02;11.10;;;4.80;;
41233;SDS011;26968;42.686;23.352;2023-07-13T12:47:29;17.98;;;8.77;;
41233;SDS011;26968;42.686;23.352;2023-07-13T12:49:57;15.52;;;5.20;;
41233;SDS011;26968;42.686;23.352;2023-07-13T12:52:33;13.65;;;4.88;;
41233;SDS011;26968;42.686;23.352;2023-07-13T12:55:13;13.82;;;4.45;;
41233;SDS011;26968;42.686;23.352;2023-07-13T12:57:46;11.95;;;4.63;;
41233;SDS011;26968;42.686;23.352;2023-07-13T13:00:24;12.65;;;4.88;;
41233;SDS011;26968;42.686;23.352;2023-07-13T13:02:53;19.05;;;5.22;;
41233;SDS011;26968;42.686;23.352;2023-07-13T13:05:21;15.88;;;5.50;;
41233;SDS011;26968;42.686;23.352;2023-07-13T13:07:49;10.68;;;5.18;;
41233;SDS011;26968;42.686;23.352;2023-07-13T13:10:15;14.85;;;5.90;;
41233;SDS011;26968;42.686;23.352;2023-07-13T13:12:40;13.73;;;4.72;;
41233;SDS011;26968;42.686;23.352;2023-07-13T13:15:08;13.73;;;5.25;;
41233;SDS011;26968;42.686;23.352;2023-07-13T13:17:34;11.85;;;4.80;;
41233;SDS011;26968;42.686;23.352;2023-07-13T13:20:00;12.88;;;4.85;;
41233;SDS011;26968;42.686;23.352;2023-07-13T13:22:26;13.43;;;5.10;;
41233;SDS011;26968;42.686;23.352;2023-07-13T13:24:51;11.70;;;5.30;;
41233;SDS011;26968;42.686;23.352;2023-07-13T13:27:18;12.50;;;5.10;;
41233;SDS011;26968;42.686;23.352;2023-07-13T13:29:46;13.45;;;5.55;;
41233;SDS011;26968;42.686;23.352;2023-07-13T13:32:12;14.05;;;5.38;;
41233;SDS011;26968;42.686;23.352;2023-07-13T13:34:39;27.15;;;4.80;;
41233;SDS011;26968;42.686;23.352;2023-07-13T13:37:05;13.85;;;5.15;;
41233;SDS011;26968;42.686;23.352;2023-07-13T13:39:45;12.60;;;4.95;;
41233;SDS011;26968;42.686;23.352;2023-07-13T13:42:11;16.75;;;5.10;;
41233;SDS011;26968;42.686;23.352;2023-07-13T13:44:37;16.00;;;4.97;;
41233;SDS011;26968;42.686;23.352;2023-07-13T13:47:03;9.80;;;4.40;;
41233;SDS011;26968;42.686;23.352;2023-07-13T13:49:29;15.07;;;4.38;;
41233;SDS011;26968;42.686;23.352;2023-07-13T13:51:55;19.27;;;5.63;;
41233;SDS011;26968;42.686;23.352;2023-07-13T13:54:21;13.05;;;4.47;;
41233;SDS011;26968;42.686;23.352;2023-07-13T13:56:50;11.10;;;4.43;;
41233;SDS011;26968;42.686;23.352;2023-07-13T13:59:17;16.85;;;5.40;;
41233;SDS011;26968;42.686;23.352;2023-07-13T14:01:43;16.45;;;5.10;;
41233;SDS011;26968;42.686;23.352;2023-07-13T14:04:20;19.83;;;4.65;;
41233;SDS011;26968;42.686;23.352;2023-07-13T14:06:47;11.80;;;4.80;;
41233;SDS011;26968;42.686;23.352;2023-07-13T14:09:14;12.38;;;5.18;;
41233;SDS011;26968;42.686;23.352;2023-07-13T14:11:41;12.88;;;5.03;;
41233;SDS011;26968;42.686;23.352;2023-07-13T14:14:09;20.50;;;5.65;;
41233;SDS011;26968;42.686;23.352;2023-07-13T14:16:39;13.65;;;5.05;;
41233;SDS011;26968;42.686;23.352;2023-07-13T14:19:08;20.65;;;4.55;;
41233;SDS011;26968;42.686;23.352;2023-07-13T14:21:36;15.27;;;4.65;;
41233;SDS011;26968;42.686;23.352;2023-07-13T14:24:02;13.32;;;4.80;;
41233;SDS011;26968;42.686;23.352;2023-07-13T14:26:27;12.23;;;4.68;;
41233;SDS011;26968;42.686;23.352;2023-07-13T14:28:56;17.02;;;5.38;;
41233;SDS011;26968;42.686;23.352;2023-07-13T14:31:23;12.02;;;5.05;;
41233;SDS011;26968;42.686;23.352;2023-07-13T14:33:49;15.60;;;5.25;;
41233;SDS011;26968;42.686;23.352;2023-07-13T14:38:40;15.80;;;5.00;;
41233;SDS011;26968;42.686;23.352;2023-07-13T14:41:07;15.52;;;5.00;;
41233;SDS011;26968;42.686;23.352;2023-07-13T14:43:33;15.95;;;5.25;;
41233;SDS011;26968;42.686;23.352;2023-07-13T14:45:58;9.55;;;4.63;;
41233;SDS011;26968;42.686;23.352;2023-07-13T14:48:24;13.20;;;5.30;;
41233;SDS011;26968;42.686;23.352;2023-07-13T14:50:53;10.68;;;4.80;;
41233;SDS011;26968;42.686;23.352;2023-07-13T14:53:20;18.13;;;4.80;;
41233;SDS011;26968;42.686;23.352;2023-07-13T14:55:45;17.80;;;5.10;;
41233;SDS011;26968;42.686;23.352;2023-07-13T14:58:11;18.10;;;5.10;;
41233;SDS011;26968;42.686;23.352;2023-07-13T15:00:38;16.70;;;4.88;;
41233;SDS011;26968;42.686;23.352;2023-07-13T15:03:05;13.25;;;4.53;;
41233;SDS011;26968;42.686;23.352;2023-07-13T15:05:39;16.00;;;5.60;;